Olmsted Falls, Ohio
Current Conditions -  °F | °C
As of 3:51 AM on Wednesday 28 Jan 2015 (Local Time) from KCLE Reporting Station
Clear Clear  
Wind Chill: 10°   Ceiling: Unl
Heat Index: 10°   Visibility: 10mi
Dew Point:   Wind: 3mph
Humidity: 92%   Direction: 270°W
Pressure: 30.27"   Gusts: NA
Location:  41.37°N, 81.91°W
Report Text: KCLE 280851Z 27003KT 10SM CLR M12/M13 A3027 RMK AO2 SLP265 I1000 I3001 T11221133 51018
Loading
Personal Weather Stations






























Interactive Weather Map New forecast layout! Learn more

10-Day Weather Forecast

Advertisements
Track Severe Weather on mobile